This is the latest recevied weather packets stored in our database for station/object KK7ISX. If no packets are shown the sender has not sent any weather packets the latest 10 day(s).
| Time | Temp. | Humidity | Pressure | Rain* | Wind** | Luminosity | Snow |
|---|---|---|---|---|---|---|---|
| 1777869510 | 18.89° C | 46% | 1007.7 hPa | 0 mm | - | 0 W/m² | - |
| 1777869206 | 18.89° C | 46% | 1007.8 hPa | 0 mm | - | 0 W/m² | - |
| 1777868904 | 19.44° C | 44% | 1007.6 hPa | 0 mm | - | 0 W/m² | - |
| 1777868600 | 20° C | 44% | 1007.9 hPa | 0 mm | - | 0 W/m² | - |
| 1777868296 | 20° C | 43% | 1007.8 hPa | 0 mm | - | 0 W/m² | - |
| 1777867992 | 20.56° C | 42% | 1007.7 hPa | 0 mm | - | 0 W/m² | - |
| 1777867689 | 20.56° C | 41% | 1007.6 hPa | 0 mm | - | 0 W/m² | - |
| 1777867387 | 20.56° C | 41% | 1007.7 hPa | 0 mm | - | 0 W/m² | - |
| 1777867082 | 21.11° C | 40% | 1007.6 hPa | 0 mm | - | 0 W/m² | - |
| 1777866477 | 21.67° C | 40% | 1007.6 hPa | 0 mm | - | 0 W/m² | - |
| 1777864963 | 21.67° C | 37% | 1007.2 hPa | 0 mm | - | 0 W/m² | - |
| 1777864357 | 22.78° C | 36% | 1007.3 hPa | 0 mm | - | 0 W/m² | - |
| 1777847679 | 26.67° C | 27% | 1009.6 hPa | 0 mm | - | 503 W/m² | - |
| 1777846771 | 26.67° C | 26% | 1010 hPa | 0 mm | - | 542 W/m² | - |
| 1777846469 | 26.67° C | 29% | 1009.9 hPa | 0 mm | - | 551 W/m² | - |
| 1777845256 | 26.11° C | 30% | 1010.3 hPa | 0 mm | - | 597 W/m² | - |
| 1777844046 | 25.56° C | 31% | 1010.5 hPa | 0 mm | - | 633 W/m² | - |
| 1777843742 | 26.11° C | 34% | 1010.8 hPa | 0 mm | - | 642 W/m² | - |
| 1777843137 | 25.56° C | 35% | 1010.9 hPa | 0 mm | - | 655 W/m² | - |
| 1777842226 | 25.56° C | 35% | 1011.2 hPa | 0 mm | - | 675 W/m² | - |
| 1777841921 | 25° C | 34% | 1011.1 hPa | 0 mm | - | 682 W/m² | - |
| 1777840709 | 23.89° C | 38% | 1011.7 hPa | 0 mm | - | 703 W/m² | - |
| 1777840103 | 25° C | 39% | 1011.8 hPa | 0 mm | - | 713 W/m² | - |
| 1777839801 | 24.44° C | 39% | 1011.9 hPa | 0 mm | - | 717 W/m² | - |
| 1777839499 | 25° C | 36% | 1012 hPa | 0 mm | - | 721 W/m² | - |
* Rain latest hour (hover to see other rain measurements)
** Current wind speed in m/s (hover to see current wind gust speed)